EVRA/RIX METAR and TAF weather

Enter ICAO airport designator
Station Type Date Time Source
EVRA METAR 2021/04/13 23:20 UTC NOAA

EVRA 132320Z 19002KT 9999 SCT009 OVC025 02/01 Q1021 NOSIG


Station Type Date Time Source
EVRA Decoded METAR 2021/04/13 23:20 UTC NOAA

Riga International Airport, Latvia (EVRA) 56-55N 023-58E
Apr 13, 2021 - 07:20 PM EDT / 2021.04.13 2320 UTC
Wind: from the S (190 degrees) at 2 MPH (2 KT):0
Visibility: greater than 7 mile(s):0
Sky conditions: overcast
Temperature: 35 F (2 C)
Dew Point: 33 F (1 C)
Relative Humidity: 93%
Pressure (altimeter): 30.15 in. Hg (1021 hPa)
ob: EVRA 132320Z 19002KT 9999 SCT009 OVC025 02/01 Q1021 NOSIG
cycle: 23

Station Type Date Time Source
EVRA TAF 2021/04/13 21:03 UTC NOAA

TAF TAF EVRA 132001Z 1321/1421 VRB02KT CAVOK
BECMG 1408/1410 34010KT

Example: see airport list